createdAt,value
2023-05-12T00:02:06.603Z,45.65
2023-05-12T00:04:36.017Z,45.57
2023-05-12T00:07:06.280Z,46.09
2023-05-12T00:09:35.541Z,46.08
2023-05-12T00:12:04.633Z,46.01
2023-05-12T00:14:32.933Z,46.14
2023-05-12T00:17:00.405Z,46.15
2023-05-12T00:19:28.799Z,46.15
2023-05-12T00:21:56.241Z,46.24
2023-05-12T00:24:25.563Z,46.12
2023-05-12T00:26:54.626Z,46.24
2023-05-12T00:29:22.963Z,46.23
2023-05-12T00:31:51.444Z,46.46
2023-05-12T00:34:19.786Z,46.54
2023-05-12T00:36:47.260Z,46.48
2023-05-12T00:39:15.775Z,46.40
2023-05-12T00:41:44.324Z,46.60
2023-05-12T00:44:12.688Z,46.36
2023-05-12T00:46:40.092Z,46.46
2023-05-12T00:49:08.483Z,46.41
2023-05-12T00:51:35.988Z,46.43
2023-05-12T00:54:04.516Z,46.48
2023-05-12T00:56:34.802Z,46.47
2023-05-12T00:59:04.249Z,46.20
2023-05-12T01:01:33.306Z,46.47
2023-05-12T01:04:02.855Z,46.64
2023-05-12T01:06:35.801Z,46.80
2023-05-12T01:09:04.507Z,46.41
2023-05-12T01:11:32.899Z,46.66
2023-05-12T01:14:01.489Z,46.58
2023-05-12T01:16:35.989Z,46.55
2023-05-12T01:19:06.943Z,46.96
2023-05-12T01:21:36.620Z,47.10
2023-05-12T01:24:08.466Z,46.85
2023-05-12T01:26:37.675Z,47.04
2023-05-12T01:29:06.996Z,47.43
2023-05-12T01:31:35.470Z,47.17
2023-05-12T01:34:03.965Z,46.95
2023-05-12T01:36:33.128Z,47.26
2023-05-12T01:39:01.715Z,47.47
2023-05-12T01:41:30.424Z,47.03
2023-05-12T01:43:58.932Z,47.22
2023-05-12T01:46:27.868Z,47.21
2023-05-12T01:48:59.623Z,47.51
2023-05-12T01:51:28.331Z,47.57
2023-05-12T01:53:57.760Z,47.65
2023-05-12T01:56:28.346Z,47.41
2023-05-12T01:58:57.501Z,47.35
2023-05-12T02:01:28.126Z,47.64
2023-05-12T02:03:57.635Z,47.90
2023-05-12T02:06:27.815Z,47.58
2023-05-12T02:08:57.149Z,47.86
2023-05-12T02:11:25.697Z,47.49
2023-05-12T02:13:53.952Z,47.91
2023-05-12T02:16:22.050Z,47.91
2023-05-12T02:18:50.572Z,47.91
2023-05-12T02:21:19.256Z,48.44
2023-05-12T02:23:47.605Z,48.28
2023-05-12T02:26:15.142Z,48.17
2023-05-12T02:28:43.543Z,48.49
2023-05-12T02:31:12.103Z,48.22
2023-05-12T02:33:41.184Z,48.27
2023-05-12T02:36:10.140Z,48.47
2023-05-12T02:38:39.622Z,48.42
2023-05-12T02:41:07.976Z,48.17
2023-05-12T02:43:35.693Z,48.53
2023-05-12T02:46:04.126Z,48.63
2023-05-12T02:48:33.182Z,48.25
2023-05-12T02:51:00.789Z,48.55
2023-05-12T02:53:29.450Z,48.74
2023-05-12T02:55:57.735Z,48.63
2023-05-12T02:58:25.989Z,48.80
2023-05-12T03:01:06.671Z,48.83
2023-05-12T03:03:39.189Z,48.80
2023-05-12T03:06:08.808Z,48.69
2023-05-12T03:08:37.087Z,48.73
2023-05-12T03:11:04.853Z,48.74
2023-05-12T03:13:33.756Z,48.69
2023-05-12T03:16:02.393Z,48.98
2023-05-12T03:18:31.350Z,49.28
2023-05-12T03:20:59.665Z,49.23
2023-05-12T03:23:29.431Z,49.03
2023-05-12T03:25:58.230Z,49.11
2023-05-12T03:28:26.636Z,49.28
2023-05-12T03:30:55.105Z,49.22
2023-05-12T03:33:24.630Z,49.38
2023-05-12T03:35:54.199Z,48.96
2023-05-12T03:38:22.488Z,48.90
2023-05-12T03:40:52.075Z,49.13
2023-05-12T03:43:20.593Z,49.37
2023-05-12T03:45:49.089Z,49.12
2023-05-12T03:48:17.381Z,49.23
2023-05-12T03:50:44.916Z,48.95
2023-05-12T03:53:13.270Z,49.05
2023-05-12T03:55:40.860Z,49.16
2023-05-12T03:58:09.232Z,48.98
2023-05-12T04:00:36.670Z,48.69
2023-05-12T04:03:05.073Z,48.75
2023-05-12T04:05:37.192Z,48.46
2023-05-12T04:08:05.879Z,48.62
2023-05-12T04:10:34.201Z,48.49
2023-05-12T04:13:01.889Z,48.51
2023-05-12T04:15:31.581Z,48.25
2023-05-12T04:17:59.021Z,48.25
2023-05-12T04:20:27.367Z,48.11
2023-05-12T04:22:54.929Z,48.17
2023-05-12T04:25:23.391Z,48.25
2023-05-12T04:27:50.798Z,48.04
2023-05-12T04:30:19.471Z,47.87
2023-05-12T04:32:48.262Z,47.61
2023-05-12T04:35:17.797Z,47.63
2023-05-12T04:37:46.759Z,47.45
2023-05-12T04:40:15.568Z,47.44
2023-05-12T04:42:43.885Z,47.43
2023-05-12T04:45:13.040Z,47.05
2023-05-12T04:47:41.530Z,47.13
2023-05-12T04:50:11.330Z,46.81
2023-05-12T04:52:39.878Z,46.79
2023-05-12T04:55:09.666Z,46.22
2023-05-12T04:57:40.546Z,46.09
2023-05-12T05:00:12.441Z,46.14
2023-05-12T05:02:41.374Z,45.86
2023-05-12T05:05:11.205Z,45.75
2023-05-12T05:07:39.541Z,44.78
2023-05-12T05:10:10.029Z,44.56
2023-05-12T05:12:39.449Z,44.68
2023-05-12T05:15:10.965Z,44.65
2023-05-12T05:17:39.700Z,44.51
2023-05-12T05:20:12.290Z,44.90
2023-05-12T05:22:43.394Z,44.31
2023-05-12T05:25:12.908Z,44.77
2023-05-12T05:27:41.164Z,44.34
2023-05-12T05:30:11.200Z,43.93
2023-05-12T05:32:41.023Z,43.16
2023-05-12T05:35:10.244Z,42.64
2023-05-12T05:37:43.045Z,42.73
2023-05-12T05:40:12.459Z,42.85
2023-05-12T05:42:40.968Z,42.30
2023-05-12T05:45:11.356Z,42.53
2023-05-12T05:47:40.451Z,42.37
2023-05-12T05:50:10.825Z,41.97
2023-05-12T05:52:41.186Z,42.14
2023-05-12T05:55:10.326Z,42.24
2023-05-12T05:57:38.765Z,41.95
2023-05-12T06:00:09.708Z,42.25
2023-05-12T06:02:46.694Z,42.12
2023-05-12T06:05:19.604Z,42.39
2023-05-12T06:07:48.156Z,42.33
2023-05-12T06:10:16.585Z,41.40
2023-05-12T06:12:45.337Z,41.72
2023-05-12T06:15:13.698Z,41.76
2023-05-12T06:17:41.981Z,42.03
2023-05-12T06:20:12.698Z,41.52
2023-05-12T06:22:43.716Z,41.05
2023-05-12T06:25:12.538Z,40.72
2023-05-12T06:27:40.813Z,38.58
2023-05-12T06:30:12.530Z,36.72
2023-05-12T06:32:42.401Z,34.86
2023-05-12T06:35:11.071Z,33.15
2023-05-12T06:37:39.365Z,31.41
2023-05-12T06:40:09.734Z,30.69
2023-05-12T06:42:38.106Z,30.28
2023-05-12T06:45:12.251Z,27.69
2023-05-12T06:47:40.560Z,26.49
2023-05-12T06:50:09.843Z,25.75
2023-05-12T06:52:38.258Z,26.61
2023-05-12T06:55:08.274Z,25.68
2023-05-12T06:57:36.741Z,24.86
2023-05-12T07:00:06.947Z,24.20
2023-05-12T07:02:35.270Z,24.01
2023-05-12T07:05:03.928Z,23.22
2023-05-12T07:07:32.215Z,23.26
2023-05-12T07:10:00.531Z,22.80
2023-05-12T07:12:28.832Z,22.76
2023-05-12T07:14:57.144Z,22.05
2023-05-12T07:17:25.621Z,22.16
2023-05-12T07:19:53.982Z,21.51
2023-05-12T07:22:22.879Z,22.11
2023-05-12T07:24:51.410Z,22.02
2023-05-12T07:27:19.794Z,22.14
2023-05-12T07:29:48.157Z,20.91
2023-05-12T07:32:16.578Z,20.26
2023-05-12T07:34:45.505Z,21.00
2023-05-12T07:37:13.875Z,20.76
2023-05-12T07:39:42.275Z,20.68
2023-05-12T07:42:10.720Z,21.97
2023-05-12T07:44:39.209Z,20.58
2023-05-12T07:47:07.715Z,20.80
2023-05-12T07:49:36.059Z,20.91
2023-05-12T07:52:05.049Z,20.75
2023-05-12T07:54:33.487Z,20.96
2023-05-12T07:57:01.748Z,21.29
2023-05-12T07:59:30.200Z,20.62
2023-05-12T08:01:58.588Z,20.05
2023-05-12T08:04:26.963Z,20.99
2023-05-12T08:06:55.345Z,20.15
2023-05-12T08:09:23.671Z,20.52
2023-05-12T08:11:52.090Z,21.76
2023-05-12T08:14:21.751Z,21.36
2023-05-12T08:16:50.231Z,21.44
2023-05-12T08:19:18.591Z,21.49
2023-05-12T08:21:47.079Z,21.60
2023-05-12T08:24:15.373Z,22.18
2023-05-12T08:26:43.640Z,23.01
2023-05-12T08:29:12.294Z,22.73
2023-05-12T08:31:40.728Z,22.51
2023-05-12T08:34:11.093Z,21.37
2023-05-12T08:36:39.935Z,22.18
2023-05-12T08:39:09.718Z,22.28
2023-05-12T08:41:43.879Z,22.32
2023-05-12T08:44:12.591Z,22.42
2023-05-12T08:46:41.682Z,22.76
2023-05-12T08:49:14.940Z,23.38
2023-05-12T08:51:46.648Z,24.03
2023-05-12T08:54:19.754Z,24.24
2023-05-12T08:59:20.564Z,22.45
2023-05-12T09:01:50.285Z,22.56
2023-05-12T09:04:19.337Z,22.83
2023-05-12T09:06:48.238Z,22.74
2023-05-12T09:09:17.406Z,23.02
2023-05-12T09:11:45.821Z,22.57
2023-05-12T09:14:18.735Z,23.07
2023-05-12T09:16:49.025Z,22.96
2023-05-12T09:19:20.681Z,22.69
2023-05-12T09:21:48.995Z,23.02
2023-05-12T09:24:17.458Z,22.34
2023-05-12T09:26:47.254Z,22.61
2023-05-12T09:29:24.043Z,23.18
2023-05-12T09:32:01.355Z,23.41
2023-05-12T09:34:31.146Z,22.78
2023-05-12T09:37:01.359Z,23.15
2023-05-12T09:39:29.808Z,23.06
2023-05-12T09:41:58.098Z,23.11
2023-05-12T09:44:28.337Z,22.74
2023-05-12T09:46:56.699Z,23.28
2023-05-12T09:49:26.209Z,22.53
2023-05-12T09:51:57.771Z,22.84
2023-05-12T09:54:27.617Z,23.93
2023-05-12T09:56:58.828Z,23.58
2023-05-12T09:59:30.117Z,23.52
2023-05-12T10:02:00.269Z,23.35
2023-05-12T10:04:30.055Z,22.50
2023-05-12T10:06:59.046Z,22.92
2023-05-12T10:09:33.288Z,22.86
2023-05-12T10:12:03.661Z,22.25
2023-05-12T10:14:32.074Z,21.94
2023-05-12T10:17:00.876Z,21.90
2023-05-12T10:19:30.772Z,22.33
2023-05-12T10:21:59.076Z,22.68
2023-05-12T10:24:27.856Z,22.59
2023-05-12T10:26:57.002Z,22.58
2023-05-12T10:29:29.093Z,22.09
2023-05-12T10:31:57.787Z,22.44
2023-05-12T10:34:32.596Z,22.30
2023-05-12T10:37:02.869Z,22.98
2023-05-12T10:39:32.182Z,22.68
2023-05-12T10:42:06.410Z,22.74
2023-05-12T10:44:35.184Z,23.04
2023-05-12T10:47:13.449Z,22.86
2023-05-12T10:49:42.420Z,23.00
2023-05-12T10:52:12.541Z,23.53
2023-05-12T10:54:43.893Z,22.94
2023-05-12T10:57:18.536Z,23.52
2023-05-12T10:59:51.600Z,23.18
2023-05-12T11:02:25.033Z,22.57
2023-05-12T11:04:57.924Z,22.36
2023-05-12T11:07:29.355Z,22.71
2023-05-12T11:10:01.636Z,22.09
2023-05-12T11:12:32.534Z,22.23
2023-05-12T11:15:02.632Z,22.37
2023-05-12T11:17:31.254Z,22.60
2023-05-12T11:20:00.338Z,22.84
2023-05-12T11:22:28.673Z,22.27
2023-05-12T11:24:57.059Z,21.46
2023-05-12T11:27:25.395Z,21.15
2023-05-12T11:29:58.125Z,21.86
2023-05-12T11:32:26.742Z,21.84
2023-05-12T11:34:55.268Z,22.48
2023-05-12T11:37:23.648Z,22.36
2023-05-12T11:39:52.419Z,22.56
2023-05-12T11:42:22.779Z,23.08
2023-05-12T11:44:54.621Z,22.59
2023-05-12T11:47:23.161Z,22.29
2023-05-12T11:49:52.648Z,21.23
2023-05-12T11:52:22.132Z,22.15
2023-05-12T11:54:51.242Z,22.09
2023-05-12T11:57:27.133Z,21.86
2023-05-12T11:59:59.527Z,20.92
2023-05-12T12:02:28.497Z,20.89
2023-05-12T12:04:57.563Z,21.12
2023-05-12T12:07:33.146Z,21.64
2023-05-12T12:10:12.666Z,22.16
2023-05-12T12:12:41.032Z,21.84
2023-05-12T12:15:11.547Z,20.96
2023-05-12T12:17:40.502Z,20.94
2023-05-12T12:20:10.668Z,21.31
2023-05-12T12:22:39.081Z,21.50
2023-05-12T12:25:09.337Z,21.32
2023-05-12T12:27:37.734Z,21.75
2023-05-12T12:30:08.338Z,21.81
2023-05-12T12:32:36.864Z,21.70
2023-05-12T12:35:06.788Z,21.76
2023-05-12T12:37:35.054Z,21.96
2023-05-12T12:40:07.472Z,22.23
2023-05-12T12:42:37.083Z,22.92
2023-05-12T12:45:08.144Z,22.34
2023-05-12T12:47:37.301Z,22.35
2023-05-12T12:50:09.279Z,22.33
2023-05-12T12:52:37.906Z,22.53
2023-05-12T12:55:09.231Z,22.83
2023-05-12T12:57:38.163Z,22.89
2023-05-12T13:00:09.532Z,22.64
2023-05-12T13:02:38.833Z,22.78
2023-05-12T13:05:09.080Z,22.18
2023-05-12T13:07:37.467Z,22.56
2023-05-12T13:10:07.486Z,22.02
2023-05-12T13:12:36.146Z,22.34
2023-05-12T13:15:06.582Z,22.38
2023-05-12T13:17:35.012Z,22.26
2023-05-12T13:20:04.071Z,21.65
2023-05-12T13:22:32.537Z,22.26
2023-05-12T13:25:00.995Z,22.22
2023-05-12T13:27:29.413Z,22.31
2023-05-12T13:29:57.873Z,22.52
2023-05-12T13:32:26.282Z,22.53
2023-05-12T13:34:54.691Z,22.18
2023-05-12T13:37:23.386Z,22.44
2023-05-12T13:39:51.713Z,22.09
2023-05-12T13:42:21.068Z,21.91
2023-05-12T13:44:49.864Z,22.15
2023-05-12T13:47:18.440Z,22.25
2023-05-12T13:49:46.931Z,22.08
2023-05-12T13:52:15.433Z,22.15
2023-05-12T13:54:43.818Z,22.61
2023-05-12T13:57:12.171Z,22.70
2023-05-12T13:59:40.685Z,22.47
2023-05-12T14:02:11.352Z,22.42
2023-05-12T14:04:40.132Z,22.31
2023-05-12T14:07:08.881Z,22.11
2023-05-12T14:09:37.327Z,22.39
2023-05-12T14:12:07.428Z,22.27
2023-05-12T14:14:35.917Z,22.06
2023-05-12T14:17:04.642Z,22.38
2023-05-12T14:19:34.974Z,22.32
2023-05-12T14:22:09.958Z,21.97
2023-05-12T14:24:47.139Z,21.89
2023-05-12T14:27:15.413Z,22.23
2023-05-12T14:29:43.840Z,22.50
2023-05-12T14:32:12.618Z,22.27
2023-05-12T14:34:40.925Z,22.33
2023-05-12T14:37:09.275Z,22.68
2023-05-12T14:39:37.617Z,22.56
2023-05-12T14:42:06.716Z,22.61
2023-05-12T14:44:35.469Z,22.77
2023-05-12T14:47:05.222Z,23.06
2023-05-12T14:49:34.228Z,22.96
2023-05-12T14:52:03.052Z,22.90
2023-05-12T14:54:32.810Z,23.11
2023-05-12T14:57:01.226Z,22.99
2023-05-12T14:59:30.259Z,23.40
2023-05-12T15:01:58.613Z,23.57
2023-05-12T15:04:27.299Z,23.00
2023-05-12T15:06:55.912Z,23.07
2023-05-12T15:09:24.183Z,23.32
2023-05-12T15:11:52.485Z,23.32
2023-05-12T15:14:20.762Z,23.61
2023-05-12T15:16:49.163Z,23.56
2023-05-12T15:19:19.865Z,23.70
2023-05-12T15:21:48.328Z,23.82
2023-05-12T15:24:16.636Z,23.78
2023-05-12T15:26:45.238Z,23.78
2023-05-12T15:29:14.047Z,23.52
2023-05-12T15:31:42.447Z,23.52
2023-05-12T15:34:10.961Z,23.16
2023-05-12T15:36:39.402Z,23.42
2023-05-12T15:39:08.043Z,23.29
2023-05-12T15:41:36.315Z,22.97
2023-05-12T15:44:05.611Z,23.01
2023-05-12T15:46:35.025Z,23.03
2023-05-12T15:49:03.389Z,23.31
2023-05-12T15:51:33.230Z,23.36
2023-05-12T15:54:02.180Z,23.60
2023-05-12T15:56:31.799Z,23.44
2023-05-12T15:59:00.542Z,23.42
2023-05-12T16:01:28.920Z,23.55
2023-05-12T16:03:57.808Z,23.46
2023-05-12T16:06:26.597Z,23.52
2023-05-12T16:08:55.548Z,23.94
2023-05-12T16:11:23.896Z,24.23
2023-05-12T16:13:52.726Z,24.37
2023-05-12T16:16:21.892Z,24.61
2023-05-12T16:18:52.299Z,24.74
2023-05-12T16:21:21.085Z,24.94
2023-05-12T16:23:49.437Z,25.53
2023-05-12T16:26:18.904Z,25.20
2023-05-12T16:28:47.323Z,25.42
2023-05-12T16:31:18.077Z,24.99
2023-05-12T16:33:46.616Z,24.81
2023-05-12T16:36:16.122Z,24.74
2023-05-12T16:38:45.470Z,25.10
2023-05-12T16:41:14.343Z,25.07
2023-05-12T16:43:42.636Z,25.35
2023-05-12T16:46:10.986Z,25.33
2023-05-12T16:48:39.409Z,25.22
2023-05-12T16:51:09.472Z,25.26
2023-05-12T16:53:38.310Z,25.65
2023-05-12T16:56:07.685Z,25.36
2023-05-12T16:58:36.079Z,25.68
2023-05-12T17:01:04.769Z,25.75
2023-05-12T17:03:33.274Z,25.79
2023-05-12T17:06:01.753Z,26.14
2023-05-12T17:08:30.491Z,26.17
2023-05-12T17:10:58.975Z,26.30
2023-05-12T17:13:27.395Z,26.39
2023-05-12T17:15:55.932Z,26.37
2023-05-12T17:18:25.240Z,27.20
2023-05-12T17:20:53.562Z,26.89
2023-05-12T17:23:21.855Z,26.85
2023-05-12T17:25:50.237Z,27.10
2023-05-12T17:28:18.682Z,27.13
2023-05-12T17:30:47.027Z,27.08
2023-05-12T17:33:15.392Z,27.20
2023-05-12T17:35:47.082Z,27.42
2023-05-12T17:38:20.224Z,27.44
2023-05-12T17:40:48.531Z,27.37
2023-05-12T17:43:17.144Z,27.60
2023-05-12T17:45:45.475Z,27.90
2023-05-12T17:48:13.887Z,28.03
2023-05-12T17:50:42.278Z,28.17
2023-05-12T17:53:10.846Z,28.24
2023-05-12T17:55:39.220Z,28.58
2023-05-12T17:58:08.025Z,28.62
2023-05-12T18:00:36.612Z,29.00
2023-05-12T18:03:05.341Z,29.71
2023-05-12T18:05:34.854Z,30.30
2023-05-12T18:08:04.063Z,31.02
2023-05-12T18:10:32.515Z,31.75
2023-05-12T18:13:00.810Z,32.25
2023-05-12T18:15:29.497Z,32.87
2023-05-12T18:17:58.019Z,33.44
2023-05-12T18:20:26.791Z,33.79
2023-05-12T18:22:55.165Z,34.12
2023-05-12T18:25:23.814Z,34.40
2023-05-12T18:27:52.251Z,35.43
2023-05-12T18:30:20.789Z,36.51
2023-05-12T18:32:49.738Z,36.90
2023-05-12T18:35:18.127Z,37.34
2023-05-12T18:37:46.586Z,37.48
2023-05-12T18:40:15.108Z,37.36
2023-05-12T18:42:43.730Z,37.38
2023-05-12T18:45:12.589Z,37.56
2023-05-12T18:47:41.119Z,37.80
2023-05-12T18:50:10.729Z,38.39
2023-05-12T18:52:39.079Z,38.33
2023-05-12T18:55:08.904Z,38.31
2023-05-12T18:57:37.174Z,38.68
2023-05-12T19:00:09.158Z,39.13
2023-05-12T19:02:37.674Z,40.11
2023-05-12T19:05:07.473Z,40.18
2023-05-12T19:07:35.870Z,40.07
2023-05-12T19:10:05.242Z,40.21
2023-05-12T19:12:33.482Z,40.77
2023-05-12T19:15:04.246Z,41.39
2023-05-12T19:17:32.837Z,41.06
2023-05-12T19:20:01.617Z,41.51
2023-05-12T19:22:30.346Z,42.00
2023-05-12T19:25:00.207Z,42.52
2023-05-12T19:27:28.650Z,42.59
2023-05-12T19:29:57.193Z,42.94
2023-05-12T19:32:25.594Z,43.52
2023-05-12T19:34:55.300Z,43.69
2023-05-12T19:37:23.824Z,44.38
2023-05-12T19:39:53.076Z,44.93
2023-05-12T19:42:21.420Z,44.84
2023-05-12T19:44:49.785Z,45.20
2023-05-12T19:47:18.402Z,45.48
2023-05-12T19:49:46.803Z,45.89
2023-05-12T19:52:15.293Z,45.98
2023-05-12T19:54:43.710Z,46.28
2023-05-12T19:57:12.106Z,46.88
2023-05-12T19:59:40.418Z,47.14
2023-05-12T20:02:09.562Z,47.05
2023-05-12T20:04:38.241Z,47.35
2023-05-12T20:07:08.219Z,47.85
2023-05-12T20:09:36.781Z,48.13
2023-05-12T20:12:07.583Z,48.04
2023-05-12T20:14:37.688Z,48.08
2023-05-12T20:17:06.942Z,48.55
2023-05-12T20:19:35.492Z,48.88
2023-05-12T20:22:04.025Z,48.94
2023-05-12T20:24:32.257Z,49.61
2023-05-12T20:27:00.573Z,49.82
2023-05-12T20:29:29.519Z,49.74
2023-05-12T20:31:57.915Z,50.12
2023-05-12T20:34:26.141Z,50.26
2023-05-12T20:36:54.566Z,50.73
2023-05-12T20:39:22.891Z,50.66
2023-05-12T20:41:51.177Z,50.78
2023-05-12T20:44:19.448Z,50.73
2023-05-12T20:46:47.991Z,50.89
2023-05-12T20:49:16.483Z,51.03
2023-05-12T20:51:44.824Z,51.19
2023-05-12T20:54:12.189Z,50.98
2023-05-12T20:56:40.422Z,50.94
2023-05-12T20:59:07.837Z,51.07
2023-05-12T21:01:36.178Z,51.31
2023-05-12T21:04:05.095Z,51.68
2023-05-12T21:06:35.190Z,51.49
2023-05-12T21:09:04.331Z,51.79
2023-05-12T21:11:32.977Z,52.10
2023-05-12T21:14:01.279Z,52.51
2023-05-12T21:16:28.711Z,52.04
2023-05-12T21:18:57.393Z,51.71
2023-05-12T21:21:26.175Z,52.01
2023-05-12T21:23:53.516Z,51.61
2023-05-12T21:26:21.839Z,51.98
2023-05-12T21:28:50.393Z,51.80
2023-05-12T21:31:18.814Z,51.97
2023-05-12T21:33:46.985Z,51.24
2023-05-12T21:36:15.364Z,50.93
2023-05-12T21:38:42.783Z,51.39
2023-05-12T21:41:11.076Z,51.48
2023-05-12T21:43:38.541Z,51.51
2023-05-12T21:46:06.928Z,51.28
2023-05-12T21:48:35.394Z,51.46
2023-05-12T21:51:04.318Z,51.09
2023-05-12T21:53:32.569Z,51.40
2023-05-12T21:56:00.891Z,51.61
2023-05-12T21:58:28.718Z,51.54
2023-05-12T22:00:57.588Z,51.32
2023-05-12T22:03:26.543Z,51.36
2023-05-12T22:05:56.123Z,51.29
2023-05-12T22:08:24.618Z,51.56
2023-05-12T22:10:52.045Z,51.20
2023-05-12T22:13:20.427Z,51.65
2023-05-12T22:15:47.959Z,51.25
2023-05-12T22:18:16.444Z,51.32
2023-05-12T22:20:45.075Z,51.46
2023-05-12T22:23:13.601Z,51.89
2023-05-12T22:25:42.014Z,52.11
2023-05-12T22:28:09.454Z,51.95
2023-05-12T22:30:38.759Z,52.04
2023-05-12T22:33:07.560Z,52.60
2023-05-12T22:35:35.032Z,52.48
2023-05-12T22:38:03.411Z,52.55
2023-05-12T22:40:32.147Z,53.05
2023-05-12T22:43:00.506Z,52.61
2023-05-12T22:45:28.015Z,52.29
2023-05-12T22:47:56.389Z,52.30
2023-05-12T22:50:24.644Z,53.21
2023-05-12T22:52:56.419Z,53.01
2023-05-12T22:55:26.674Z,53.22
2023-05-12T22:57:55.503Z,53.23
2023-05-12T23:00:24.210Z,53.16
2023-05-12T23:02:52.774Z,53.16
2023-05-12T23:05:21.546Z,52.77
2023-05-12T23:07:49.948Z,53.26
2023-05-12T23:10:18.789Z,53.97
2023-05-12T23:12:47.389Z,54.39
2023-05-12T23:15:16.012Z,54.51
2023-05-12T23:17:44.708Z,54.53
2023-05-12T23:20:13.658Z,54.29
2023-05-12T23:22:42.165Z,54.17
2023-05-12T23:25:10.777Z,54.33
2023-05-12T23:27:39.365Z,54.21
2023-05-12T23:30:09.371Z,54.17
2023-05-12T23:32:38.186Z,54.15
2023-05-12T23:35:09.236Z,54.42
2023-05-12T23:37:37.840Z,54.22
2023-05-12T23:40:09.732Z,54.76
2023-05-12T23:42:39.563Z,54.43
2023-05-12T23:45:10.142Z,54.48
2023-05-12T23:47:38.702Z,55.03
2023-05-12T23:50:09.263Z,54.46
2023-05-12T23:52:38.123Z,55.51
2023-05-12T23:55:08.592Z,55.09
2023-05-12T23:57:37.256Z,54.92
